Time;durP1;ratioP1;P1;durP2;ratioP2;P2;SDS_P1;SDS_P2;PMS_P1;PMS_P2;Temp;Humidity;BMP_temperature;BMP_pressure;BME280_temperature;BME280_humidity;BME280_pressure;Samples;Min_cycle;Max_cycle;Signal;HPM_P1;HPM_P2
2023/06/30 00:00:25;;;;;;;5.30;4.50;;;;;;;11.01;100.00;97304.42;110281;1240;70673;-65
2023/06/30 00:03:17;;;;;;;5.80;4.50;;;;;;;10.98;100.00;97308.11;110203;1242;68551;-65
2023/06/30 00:05:50;;;;;;;4.40;3.90;;;;;;;10.97;100.00;97306.64;110259;1242;68993;-66
2023/06/30 00:08:20;;;;;;;6.10;4.50;;;;;;;10.95;100.00;97306.06;110262;1242;58982;-65
2023/06/30 00:10:50;;;;;;;;;;;;;;;10.95;100.00;97303.59;110323;1241;58932;-65
2023/06/30 00:13:21;;;;;;;5.20;4.50;;;;;;;10.93;100.00;97307.58;110293;1241;70727;-65
2023/06/30 00:15:54;;;;;;;4.70;4.10;;;;;;;10.92;100.00;97308.05;110307;1240;68545;-65
2023/06/30 00:18:25;;;;;;;5.70;4.50;;;;;;;10.89;100.00;97303.58;110247;1242;69103;-65
2023/06/30 00:20:57;;;;;;;5.40;4.30;;;;;;;10.86;100.00;97303.25;110228;1242;58911;-65
2023/06/30 00:23:29;;;;;;;6.40;4.90;;;;;;;10.84;100.00;97306.23;110224;1241;58890;-65
2023/06/30 00:26:02;;;;;;;6.00;4.90;;;;;;;10.83;100.00;97307.15;110271;1242;70606;-65
2023/06/30 00:28:34;;;;;;;6.20;5.30;;;;;;;10.82;100.00;97306.56;110367;1240;68383;-66
2023/06/30 00:31:06;;;;;;;5.70;5.10;;;;;;;10.79;100.00;97304.80;110151;1244;68769;-64
2023/06/30 00:33:39;;;;;;;5.10;4.30;;;;;;;10.77;100.00;97303.58;110267;1241;58891;-64
2023/06/30 00:36:11;;;;;;;7.00;5.60;;;;;;;10.77;100.00;97302.02;110262;1242;59392;-65
2023/06/30 00:38:42;;;;;;;5.10;4.60;;;;;;;10.76;100.00;97299.83;110267;1241;70610;-64
2023/06/30 00:41:13;;;;;;;4.90;4.40;;;;;;;10.74;100.00;97298.44;110282;1242;69417;-65
2023/06/30 00:43:44;;;;;;;5.50;4.80;;;;;;;10.71;100.00;97296.50;110280;1242;68534;-64
2023/06/30 00:46:17;;;;;;;5.90;4.50;;;;;;;10.70;100.00;97297.14;110120;1241;58935;-64
2023/06/30 00:48:48;;;;;;;4.50;4.10;;;;;;;10.68;100.00;97294.30;110301;1241;58858;-64
2023/06/30 00:51:20;;;;;;;7.30;4.80;;;;;;;10.66;100.00;97293.58;110245;1242;69930;-65
2023/06/30 00:53:52;;;;;;;6.00;5.30;;;;;;;10.65;100.00;97291.56;110262;1249;69437;-65
2023/06/30 00:56:23;;;;;;;6.30;4.90;;;;;;;10.63;100.00;97289.30;110156;1244;69306;-63
2023/06/30 00:58:53;;;;;;;;;;;;;;;10.62;100.00;97292.52;110150;1244;58900;-65
2023/06/30 01:01:34;;;;;;;5.30;4.80;;;;;;;10.59;100.00;97289.44;110205;1241;58902;-64
2023/06/30 01:04:20;;;;;;;7.80;5.90;;;;;;;10.56;100.00;97293.86;110219;1242;71169;-64
2023/06/30 01:07:25;;;;;;;6.60;4.90;;;;;;;10.51;100.00;97291.58;110141;1240;70258;-64
2023/06/30 01:10:05;;;;;;;5.90;5.10;;;;;;;10.47;100.00;97290.35;110045;1245;69123;-65
2023/06/30 01:12:39;;;;;;;5.20;4.60;;;;;;;10.43;100.00;97291.28;110266;1242;59272;-64
2023/06/30 01:15:16;;;;;;;6.30;5.20;;;;;;;10.41;100.00;97289.23;110181;1244;58881;-64
2023/06/30 01:18:00;;;;;;;7.70;6.90;;;;;;;10.39;100.00;97288.46;110142;1241;70571;-64
2023/06/30 01:20:40;;;;;;;7.60;6.20;;;;;;;10.37;100.00;97291.79;110241;1242;69220;-64
2023/06/30 01:23:15;;;;;;;6.50;5.60;;;;;;;10.35;100.00;97288.11;110192;1241;68787;-64
2023/06/30 01:25:49;;;;;;;7.50;6.10;;;;;;;10.34;100.00;97289.92;110243;1240;58963;-66
2023/06/30 01:28:20;;;;;;;7.20;5.00;;;;;;;10.34;100.00;97290.20;110148;1244;58889;-64
2023/06/30 01:30:52;;;;;;;6.10;5.50;;;;;;;10.36;100.00;97286.79;110231;1242;68961;-65
2023/06/30 01:33:26;;;;;;;5.30;4.70;;;;;;;10.41;100.00;97283.23;110178;1244;69228;-65
2023/06/30 01:35:58;;;;;;;7.10;5.50;;;;;;;10.44;100.00;97286.67;110229;1242;68514;-64
2023/06/30 01:38:31;;;;;;;6.40;5.80;;;;;;;10.45;100.00;97287.50;110264;1241;58866;-64
2023/06/30 01:41:08;;;;;;;8.70;6.60;;;;;;;10.44;100.00;97289.86;110240;1242;58827;-66
2023/06/30 01:43:43;;;;;;;6.90;6.20;;;;;;;10.41;100.00;97292.02;110251;1242;69659;-64
2023/06/30 01:46:14;;;;;;;6.00;4.70;;;;;;;10.37;100.00;97291.61;110154;1245;68857;-66
2023/06/30 01:48:44;;;;;;;6.50;5.80;;;;;;;10.33;100.00;97291.70;110119;1244;68810;-66
2023/06/30 01:51:18;;;;;;;7.40;5.70;;;;;;;10.29;100.00;97288.68;110132;1245;58920;-66
2023/06/30 01:53:53;;;;;;;8.10;5.80;;;;;;;10.25;100.00;97292.81;110244;1242;58836;-64
2023/06/30 01:56:26;;;;;;;6.40;5.10;;;;;;;10.23;100.00;97294.39;110210;1242;70447;-63
2023/06/30 01:58:57;;;;;;;6.10;5.20;;;;;;;10.20;100.00;97297.33;110233;1241;68491;-64
2023/06/30 02:01:29;;;;;;;5.70;4.90;;;;;;;10.18;100.00;97297.47;110247;1242;69272;-66
2023/06/30 02:04:00;;;;;;;6.30;5.70;;;;;;;10.15;100.00;97296.63;110161;1243;58833;-66
2023/06/30 02:06:33;;;;;;;8.20;5.50;;;;;;;10.12;100.00;97297.08;110208;1242;58879;-64
2023/06/30 02:09:04;;;;;;;6.40;5.20;;;;;;;10.08;100.00;97292.77;110165;1242;70496;-65
2023/06/30 02:11:35;;;;;;;7.60;6.10;;;;;;;10.07;100.00;97290.98;110187;1245;69276;-65
2023/06/30 02:14:07;;;;;;;8.90;6.80;;;;;;;10.05;100.00;97293.67;110201;1242;68523;-65
2023/06/30 02:16:37;;;;;;;8.10;7.10;;;;;;;10.04;100.00;97293.44;110224;1242;58875;-66
2023/06/30 02:19:09;;;;;;;7.80;6.50;;;;;;;10.03;100.00;97294.72;110153;1241;59323;-65
2023/06/30 02:21:40;;;;;;;8.50;6.50;;;;;;;10.03;100.00;97294.02;110158;1241;70576;-64
2023/06/30 02:24:11;;;;;;;11.30;7.10;;;;;;;10.04;100.00;97288.77;110237;1242;69291;-64
2023/06/30 02:26:42;;;;;;;9.70;7.50;;;;;;;10.04;100.00;97288.23;110224;1242;68554;-64
2023/06/30 02:29:16;;;;;;;7.60;6.80;;;;;;;10.01;100.00;97284.63;110199;1242;59346;-66
2023/06/30 02:31:49;;;;;;;8.00;6.20;;;;;;;9.97;100.00;97285.46;110243;1242;58894;-65
2023/06/30 02:34:20;;;;;;;7.30;6.20;;;;;;;9.94;100.00;97285.83;110217;1241;70757;-62
2023/06/30 02:36:52;;;;;;;7.30;6.60;;;;;;;9.94;100.00;97283.74;110192;1241;67622;-65
2023/06/30 02:39:23;;;;;;;9.60;7.90;;;;;;;10.00;100.00;97284.70;110173;1241;68522;-64
2023/06/30 02:41:53;;;;;;;12.10;10.10;;;;;;;10.18;100.00;97282.63;110274;1242;58950;-65
2023/06/30 02:44:25;;;;;;;11.20;8.20;;;;;;;10.24;100.00;97286.83;110143;1244;58941;-64
2023/06/30 02:46:58;;;;;;;8.30;7.50;;;;;;;10.27;100.00;97287.86;110230;1240;70511;-65
2023/06/30 02:49:30;;;;;;;6.80;6.20;;;;;;;10.31;100.00;97289.23;110200;1243;69252;-65
2023/06/30 02:52:03;;;;;;;7.20;6.50;;;;;;;10.30;100.00;97288.27;110217;1240;69553;-66
2023/06/30 02:54:34;;;;;;;6.50;5.70;;;;;;;10.27;100.00;97286.04;110178;1244;58871;-64
2023/06/30 02:57:05;;;;;;;7.00;5.80;;;;;;;10.21;100.00;97285.39;110265;1242;58965;-64
2023/06/30 02:59:37;;;;;;;7.20;5.80;;;;;;;10.15;100.00;97290.88;110214;1243;69713;-64
2023/06/30 03:02:10;;;;;;;6.50;5.30;;;;;;;10.14;100.00;97287.17;110171;1241;68345;-64
2023/06/30 03:04:40;;;;;;;5.70;5.20;;;;;;;10.15;100.00;97284.08;110244;1243;68543;-64
2023/06/30 03:07:10;;;;;;;7.40;5.60;;;;;;;10.14;100.00;97284.34;110178;1245;58870;-66
2023/06/30 03:09:42;;;;;;;8.30;6.90;;;;;;;10.17;100.00;97285.17;110185;1245;58905;-64
2023/06/30 03:12:12;;;;;;;7.70;6.70;;;;;;;10.26;100.00;97284.88;110127;1240;70360;-65
2023/06/30 03:14:44;;;;;;;7.20;6.20;;;;;;;10.32;100.00;97285.85;110214;1241;68496;-63
2023/06/30 03:17:14;;;;;;;9.30;6.00;;;;;;;10.35;100.00;97287.76;110193;1242;69103;-66
2023/06/30 03:19:44;;;;;;;7.70;6.20;;;;;;;10.39;100.00;97289.72;110117;1244;58857;-63
2023/06/30 03:22:15;;;;;;;8.70;5.90;;;;;;;10.45;100.00;97289.05;110152;1241;58928;-65
2023/06/30 03:24:45;;;;;;;6.40;5.40;;;;;;;10.47;100.00;97285.99;110195;1242;71505;-64
2023/06/30 03:27:15;;;;;;;6.90;5.30;;;;;;;10.50;100.00;97288.88;110195;1240;68596;-64
2023/06/30 03:29:47;;;;;;;7.30;5.40;;;;;;;10.51;100.00;97290.55;110247;1241;68401;-65
2023/06/30 03:32:17;;;;;;;5.90;5.00;;;;;;;10.52;100.00;97291.02;110173;1242;58942;-64
2023/06/30 03:34:47;;;;;;;7.80;6.30;;;;;;;10.52;100.00;97291.90;110277;1242;58873;-64
2023/06/30 03:37:17;;;;;;;6.60;5.90;;;;;;;10.51;100.00;97294.04;110152;1244;70495;-64
2023/06/30 03:39:46;;;;;;;6.30;5.50;;;;;;;10.51;100.00;97290.00;110135;1245;68373;-66
2023/06/30 03:42:17;;;;;;;6.90;5.70;;;;;;;10.56;100.00;97287.08;110204;1241;69273;-63
2023/06/30 03:44:46;;;;;;;6.50;5.60;;;;;;;10.60;100.00;97285.18;110171;1245;58862;-66
2023/06/30 03:47:15;;;;;;;6.80;5.50;;;;;;;10.68;100.00;97284.91;110261;1242;58839;-65
2023/06/30 03:49:45;;;;;;;7.10;5.60;;;;;;;10.75;100.00;97284.63;110224;1241;71990;-65
2023/06/30 03:52:15;;;;;;;;;;;;;;;10.82;100.00;97285.46;110294;1241;69173;-64
2023/06/30 03:54:45;;;;;;;6.00;5.40;;;;;;;10.89;100.00;97284.19;110268;1242;69886;-66
2023/06/30 03:57:17;;;;;;;7.10;5.70;;;;;;;10.96;100.00;97285.94;110264;1242;58919;-64
2023/06/30 03:59:47;;;;;;;8.60;6.10;;;;;;;11.02;100.00;97285.79;110197;1243;58955;-65
2023/06/30 04:02:17;;;;;;;6.50;5.70;;;;;;;11.13;100.00;97282.54;110246;1242;70587;-64
2023/06/30 04:04:48;;;;;;;6.50;5.70;;;;;;;11.24;100.00;97285.17;110216;1242;70296;-63
2023/06/30 04:07:19;;;;;;;6.50;5.80;;;;;;;11.33;100.00;97284.86;110260;1241;68370;-63
2023/06/30 04:09:48;;;;;;;;;;;;;;;11.37;100.00;97289.45;110248;1242;58950;-64
2023/06/30 04:12:18;;;;;;;;;;;;;;;11.46;100.00;97287.27;110256;1247;58872;-64
2023/06/30 04:14:48;;;;;;;7.00;5.50;;;;;;;11.56;100.00;97282.53;110232;1241;70583;-64
2023/06/30 04:17:17;;;;;;;6.30;5.10;;;;;;;11.65;100.00;97286.70;110219;1241;68706;-63
2023/06/30 04:19:48;;;;;;;7.10;5.90;;;;;;;11.75;100.00;97285.05;110207;1241;68789;-64
2023/06/30 04:22:18;;;;;;;5.70;5.10;;;;;;;11.84;100.00;97288.17;110210;1241;58948;-64
2023/06/30 04:24:48;;;;;;;6.50;5.50;;;;;;;11.95;100.00;97286.80;110235;1240;58896;-63
2023/06/30 04:27:17;;;;;;;6.00;5.40;;;;;;;12.06;100.00;97290.05;110252;1242;70578;-64
2023/06/30 04:29:47;;;;;;;5.70;5.10;;;;;;;12.18;100.00;97289.40;110249;1240;69690;-66
2023/06/30 04:32:18;;;;;;;6.10;5.50;;;;;;;12.32;100.00;97286.91;110262;1240;68710;-65
2023/06/30 04:34:47;;;;;;;7.50;6.10;;;;;;;12.49;100.00;97289.37;110232;1241;58929;-66
2023/06/30 04:37:17;;;;;;;6.70;6.00;;;;;;;12.66;100.00;97290.16;110264;1241;58891;-63
2023/06/30 04:39:48;;;;;;;6.70;6.00;;;;;;;12.83;100.00;97291.27;110233;1242;70453;-66
2023/06/30 04:42:17;;;;;;;6.80;6.00;;;;;;;12.96;100.00;97294.34;110225;1242;69542;-64
2023/06/30 04:44:46;;;;;;;6.80;6.10;;;;;;;13.13;100.00;97293.13;110219;1242;69964;-64
2023/06/30 04:47:16;;;;;;;7.60;6.90;;;;;;;13.28;100.00;97295.16;110244;1241;58931;-65
2023/06/30 04:49:46;;;;;;;6.50;5.50;;;;;;;13.40;100.00;97295.72;110264;1243;58882;-64
2023/06/30 04:52:15;;;;;;;7.80;6.40;;;;;;;13.54;100.00;97298.02;110241;1242;69522;-65
2023/06/30 04:54:45;;;;;;;7.90;6.10;;;;;;;13.66;100.00;97293.13;110308;1242;68320;-66
2023/06/30 04:57:14;;;;;;;7.30;6.50;;;;;;;13.75;100.00;97293.02;110269;1241;70132;-63
2023/06/30 04:59:43;;;;;;;7.10;5.30;;;;;;;13.82;100.00;97292.27;110236;1243;59699;-64
2023/06/30 05:02:13;;;;;;;6.70;6.00;;;;;;;14.00;100.00;97295.02;110290;1242;59724;-65
2023/06/30 05:04:42;;;;;;;6.70;6.00;;;;;;;14.18;100.00;97293.91;110260;1240;71321;-64
2023/06/30 05:07:10;;;;;;;6.40;5.80;;;;;;;14.41;100.00;97295.45;110277;1242;69841;-64
2023/06/30 05:09:39;;;;;;;6.30;5.60;;;;;;;14.67;100.00;97299.55;110266;1242;69873;-64
2023/06/30 05:12:09;;;;;;;7.80;5.30;;;;;;;14.96;100.00;97301.77;110244;1241;59727;-64
2023/06/30 05:14:38;;;;;;;5.80;5.20;;;;;;;15.39;100.00;97303.17;110238;1242;59712;-64
2023/06/30 05:17:07;;;;;;;5.90;5.20;;;;;;;15.91;100.00;97304.77;110271;1242;70911;-65
2023/06/30 05:19:37;;;;;;;5.90;5.40;;;;;;;16.26;100.00;97306.14;110243;1242;69666;-64
2023/06/30 05:22:06;;;;;;;6.00;4.80;;;;;;;16.72;100.00;97309.36;110265;1242;69857;-65
2023/06/30 05:24:35;;;;;;;;;;;;;;;17.06;98.15;97309.55;110236;1242;59743;-64
2023/06/30 05:27:05;;;;;;;6.30;5.20;;;;;;;17.22;98.25;97309.96;110266;1240;59760;-64
2023/06/30 05:29:34;;;;;;;6.70;5.50;;;;;;;17.28;96.58;97308.48;110210;1240;71377;-63
2023/06/30 05:32:04;;;;;;;5.80;5.10;;;;;;;17.36;96.70;97305.95;110241;1242;69222;-63
2023/06/30 05:34:33;;;;;;;;;;;;;;;17.39;97.37;97308.81;110247;1240;69874;-66
2023/06/30 05:37:02;;;;;;;7.20;4.90;;;;;;;17.51;96.62;97307.58;110146;1242;59701;-64
2023/06/30 05:39:32;;;;;;;5.20;4.70;;;;;;;17.57;96.92;97307.29;110234;1242;59736;-63
2023/06/30 05:42:01;;;;;;;5.90;4.30;;;;;;;17.59;95.82;97309.02;110242;1242;71955;-63
2023/06/30 05:44:31;;;;;;;5.50;5.00;;;;;;;17.56;94.52;97305.34;110234;1242;69845;-64
2023/06/30 05:47:01;;;;;;;5.40;4.80;;;;;;;17.59;94.79;97304.45;110191;1242;69377;-63
2023/06/30 05:49:30;;;;;;;7.10;5.00;;;;;;;17.57;94.45;97303.64;110218;1241;59732;-63
2023/06/30 05:51:59;;;;;;;5.50;5.00;;;;;;;17.44;94.82;97300.35;110193;1242;59606;-63
2023/06/30 05:54:29;;;;;;;5.20;4.70;;;;;;;17.47;94.96;97301.95;110258;1242;71410;-66
2023/06/30 05:56:58;;;;;;;4.80;4.40;;;;;;;17.52;95.27;97301.98;110169;1242;69823;-65
2023/06/30 05:59:28;;;;;;;6.20;4.30;;;;;;;17.60;94.49;97297.52;110238;1242;69333;-65
2023/06/30 06:01:56;;;;;;;4.30;3.90;;;;;;;17.71;94.79;97298.50;110293;1241;59684;-65
2023/06/30 06:04:26;;;;;;;4.70;4.10;;;;;;;17.76;90.99;97297.09;110258;1240;59740;-64
2023/06/30 06:06:56;;;;;;;5.60;4.40;;;;;;;17.81;91.93;97297.11;110203;1240;70970;-65
2023/06/30 06:09:25;;;;;;;5.40;4.90;;;;;;;17.65;89.77;97301.19;110209;1240;68638;-64
2023/06/30 06:11:54;;;;;;;5.10;4.70;;;;;;;17.58;90.22;97302.67;110191;1247;68869;-66
2023/06/30 06:14:23;;;;;;;5.90;5.20;;;;;;;17.65;90.68;97301.77;110228;1242;59753;-63
2023/06/30 06:16:52;;;;;;;4.70;4.20;;;;;;;17.66;90.30;97297.35;110205;1242;59631;-65
2023/06/30 06:19:21;;;;;;;5.80;4.70;;;;;;;17.73;90.91;97293.48;110198;1240;71990;-63
2023/06/30 06:21:51;;;;;;;4.70;4.20;;;;;;;17.80;90.74;97295.75;110257;1241;69284;-64
2023/06/30 06:24:20;;;;;;;4.10;3.70;;;;;;;17.98;90.70;97287.24;110198;1241;69257;-65
2023/06/30 06:26:49;;;;;;;4.10;3.50;;;;;;;18.26;90.91;97285.48;110201;1242;59693;-65
2023/06/30 06:29:21;;;;;;;4.70;4.10;;;;;;;18.65;90.83;97287.34;110230;1242;59665;-64
2023/06/30 06:31:53;;;;;;;4.70;4.00;;;;;;;19.03;86.86;97285.16;110244;1242;71333;-64
2023/06/30 06:34:23;;;;;;;5.10;4.60;;;;;;;19.23;85.10;97283.98;110235;1240;69236;-63
2023/06/30 06:36:52;;;;;;;5.50;4.40;;;;;;;19.46;84.12;97286.95;110194;1242;69870;-63
2023/06/30 06:39:21;;;;;;;5.40;3.80;;;;;;;19.61;78.99;97290.94;110242;1241;59731;-65
2023/06/30 06:41:50;;;;;;;4.90;4.30;;;;;;;19.91;79.42;97289.33;110251;1242;59702;-63
2023/06/30 06:44:22;;;;;;;4.70;3.60;;;;;;;20.39;78.66;97285.98;110205;1248;71922;-65
2023/06/30 06:47:11;;;;;;;;;;;;;;;20.70;76.81;97281.54;110231;1241;68829;-64
2023/06/30 06:49:40;;;;;;;4.20;3.80;;;;;;;20.89;73.99;97284.50;110206;1244;69863;-65
2023/06/30 06:52:12;;;;;;;4.00;3.60;;;;;;;21.07;73.74;97284.13;110220;1241;59751;-63
2023/06/30 06:54:41;;;;;;;8.40;4.40;;;;;;;21.56;72.80;97285.38;110251;1242;59681;-66
2023/06/30 06:57:10;;;;;;;4.00;3.70;;;;;;;21.70;71.35;97281.80;110254;1240;71883;-62
2023/06/30 06:59:39;;;;;;;3.60;3.10;;;;;;;21.76;69.74;97283.41;110196;1242;68701;-64
2023/06/30 07:02:08;;;;;;;6.00;3.90;;;;;;;22.41;70.81;97277.24;110204;1241;69406;-66
2023/06/30 07:04:38;;;;;;;4.90;3.80;;;;;;;22.79;68.92;97279.63;110258;1241;59801;-66
2023/06/30 07:07:07;;;;;;;3.80;3.40;;;;;;;22.94;66.13;97281.29;110316;1241;59705;-65
2023/06/30 07:09:36;;;;;;;;;;;;;;;22.96;65.74;97283.60;110240;1242;71395;-64
2023/06/30 07:12:06;;;;;;;4.00;3.60;;;;;;;22.70;65.32;97282.69;110299;1242;69846;-65
2023/06/30 07:14:36;;;;;;;4.70;4.30;;;;;;;22.86;65.97;97288.02;110220;1242;69852;-63
2023/06/30 07:17:05;;;;;;;;;;;;;;;22.95;63.72;97290.61;110276;1242;59603;-65
2023/06/30 07:19:33;;;;;;;4.80;4.20;;;;;;;22.93;63.95;97289.84;110242;1242;59622;-64
2023/06/30 07:22:03;;;;;;;4.40;3.80;;;;;;;23.10;63.65;97287.45;110242;1242;72107;-64
2023/06/30 07:24:32;;;;;;;;;;;;;;;23.27;63.28;97285.44;110239;1247;69829;-66
2023/06/30 07:27:11;;;;;;;4.20;3.90;;;;;;;23.67;62.00;97287.18;110281;1240;69831;-65
2023/06/30 07:29:40;;;;;;;4.40;3.80;;;;;;;23.79;60.64;97287.25;110231;1242;59691;-64
2023/06/30 07:32:09;;;;;;;3.30;2.90;;;;;;;24.01;61.29;97286.20;110240;1242;60101;-66
2023/06/30 07:34:38;;;;;;;3.50;3.20;;;;;;;23.99;58.80;97278.34;110335;1240;71366;-64
2023/06/30 07:37:07;;;;;;;5.20;3.40;;;;;;;24.25;57.80;97276.22;110226;1241;69809;-64
2023/06/30 07:39:36;;;;;;;;;;;;;;;24.70;57.85;97275.55;110245;1242;69257;-64
2023/06/30 07:42:06;;;;;;;4.20;3.60;;;;;;;24.99;57.75;97277.82;110228;1242;59740;-63
2023/06/30 07:44:35;;;;;;;3.20;2.70;;;;;;;25.12;56.72;97279.08;110241;1240;59727;-64
2023/06/30 07:47:05;;;;;;;3.40;2.80;;;;;;;25.33;56.23;97280.26;110303;1240;71427;-64
2023/06/30 07:49:34;;;;;;;4.40;3.10;;;;;;;25.27;53.10;97277.42;110218;1242;69720;-66
2023/06/30 07:52:04;;;;;;;2.90;2.60;;;;;;;25.40;52.71;97279.30;110219;1242;68515;-62
2023/06/30 07:54:33;;;;;;;3.20;2.90;;;;;;;25.82;52.31;97277.67;110182;1242;59738;-64
2023/06/30 07:57:02;;;;;;;;;;;;;;;25.97;51.79;97278.30;110271;1241;59688;-64
2023/06/30 07:59:31;;;;;;;5.40;3.60;;;;;;;26.25;50.94;97276.59;110198;1242;71975;-66
2023/06/30 08:02:00;;;;;;;4.30;3.30;;;;;;;25.01;52.72;97272.14;110279;1240;69197;-65
2023/06/30 08:04:30;;;;;;;4.40;3.80;;;;;;;24.62;53.68;97269.31;110169;1242;69853;-64
2023/06/30 08:06:59;;;;;;;4.90;3.30;;;;;;;24.33;54.18;97269.98;110249;1242;60133;-67
2023/06/30 08:09:28;;;;;;;3.20;2.90;;;;;;;24.35;54.88;97267.80;110257;1241;59748;-66
2023/06/30 08:11:57;;;;;;;7.00;6.40;;;;;;;24.28;53.82;97269.81;110262;1241;72350;-65
2023/06/30 08:14:26;;;;;;;4.60;3.20;;;;;;;24.35;55.65;97264.17;110241;1242;68490;-65
2023/06/30 08:16:55;;;;;;;2.80;2.50;;;;;;;24.48;57.10;97260.39;110217;1242;69994;-65
2023/06/30 08:19:29;;;;;;;4.00;2.70;;;;;;;24.71;57.29;97263.59;110207;1249;59667;-64
2023/06/30 08:22:18;;;;;;;3.70;3.40;;;;;;;25.07;54.52;97267.27;110249;1243;59676;-66
2023/06/30 08:24:47;;;;;;;3.40;3.10;;;;;;;25.32;53.09;97264.73;110191;1240;70694;-65
2023/06/30 08:27:16;;;;;;;;;;;;;;;26.01;54.38;97268.71;110256;1242;69783;-66
2023/06/30 08:29:48;;;;;;;4.10;2.90;;;;;;;26.71;52.35;97264.67;110189;1242;69851;-64
2023/06/30 08:32:17;;;;;;;2.70;2.20;;;;;;;27.07;49.12;97262.34;110163;1242;59724;-64
2023/06/30 08:34:46;;;;;;;3.20;2.80;;;;;;;26.75;46.92;97265.15;110245;1247;59737;-66
2023/06/30 08:37:15;;;;;;;;;;;;;;;26.15;47.40;97267.55;110175;1241;71977;-65
2023/06/30 08:39:44;;;;;;;4.10;2.80;;;;;;;25.61;48.38;97270.56;110209;1242;68509;-64
2023/06/30 08:42:15;;;;;;;4.90;3.90;;;;;;;25.66;48.34;97271.98;110197;1242;69597;-64
2023/06/30 08:44:47;;;;;;;3.20;2.90;;;;;;;25.65;47.13;97272.86;110240;1242;59672;-65
2023/06/30 08:47:17;;;;;;;3.20;2.80;;;;;;;26.41;48.70;97264.98;110249;1241;60102;-64
2023/06/30 08:49:48;;;;;;;4.80;3.50;;;;;;;26.54;45.75;97259.36;110219;1242;71907;-64
2023/06/30 08:52:17;;;;;;;2.30;2.10;;;;;;;26.58;44.99;97254.74;110228;1242;69835;-65
2023/06/30 08:54:46;;;;;;;4.00;2.50;;;;;;;27.11;44.54;97252.16;110281;1242;68902;-64
2023/06/30 08:57:15;;;;;;;;;;;;;;;26.24;44.21;97259.95;110225;1242;59695;-65
2023/06/30 08:59:45;;;;;;;3.40;2.60;;;;;;;26.37;44.49;97261.09;110225;1242;59756;-65
2023/06/30 09:02:14;;;;;;;3.30;2.70;;;;;;;26.03;44.48;97258.77;110254;1240;72344;-65
2023/06/30 09:04:43;;;;;;;3.60;2.60;;;;;;;25.59;43.36;97260.28;110261;1242;69730;-65
2023/06/30 09:07:25;;;;;;;3.00;2.20;;;;;;;25.84;44.64;97258.45;110222;1242;69168;-65
2023/06/30 09:10:00;;;;;;;3.10;2.30;;;;;;;26.13;44.30;97254.63;110321;1242;59669;-65
2023/06/30 09:12:29;;;;;;;3.10;2.50;;;;;;;26.93;43.21;97251.19;110276;1242;59591;-66
2023/06/30 09:15:01;;;;;;;3.20;2.60;;;;;;;27.32;40.80;97250.20;110326;1240;70612;-66
2023/06/30 09:17:31;;;;;;;4.50;2.70;;;;;;;27.39;41.16;97248.11;110285;1242;69219;-63
2023/06/30 09:20:01;;;;;;;3.40;2.60;;;;;;;28.00;41.54;97245.36;110296;1242;69251;-66
2023/06/30 09:22:34;;;;;;;2.60;2.20;;;;;;;28.57;40.86;97242.99;110309;1241;59692;-65
2023/06/30 09:25:26;;;;;;;3.00;2.30;;;;;;;29.06;40.06;97244.23;110320;1241;59736;-64
2023/06/30 09:27:55;;;;;;;2.60;2.40;;;;;;;29.24;39.88;97241.30;110420;1241;71995;-65
2023/06/30 09:30:35;;;;;;;3.00;2.50;;;;;;;28.72;38.82;97239.07;110383;1239;69203;-65
2023/06/30 09:33:05;;;;;;;2.60;2.40;;;;;;;28.45;38.83;97238.52;110396;1241;69666;-65
2023/06/30 09:35:38;;;;;;;3.30;3.00;;;;;;;28.03;39.63;97236.48;110406;1241;59738;-64
2023/06/30 09:38:15;;;;;;;2.70;2.50;;;;;;;27.71;39.92;97236.12;110494;1242;59688;-65
2023/06/30 09:40:46;;;;;;;2.70;2.20;;;;;;;27.75;41.98;97237.00;110472;1240;71936;-64
2023/06/30 09:43:20;;;;;;;4.90;2.60;;;;;;;27.86;41.85;97230.42;110515;1241;69378;-65
2023/06/30 09:46:00;;;;;;;2.90;2.60;;;;;;;28.25;42.31;97230.82;110507;1241;70001;-64
2023/06/30 09:48:43;;;;;;;2.80;2.30;;;;;;;28.23;40.20;97236.18;110460;1241;59740;-66
2023/06/30 09:51:15;;;;;;;2.30;2.10;;;;;;;28.31;40.47;97225.44;110440;1242;59671;-64
2023/06/30 09:53:43;;;;;;;2.80;2.20;;;;;;;28.90;39.93;97225.41;110464;1241;71946;-65
2023/06/30 09:56:24;;;;;;;3.10;2.80;;;;;;;29.46;38.88;97222.09;110490;1242;69343;-65
2023/06/30 09:58:59;;;;;;;2.80;2.50;;;;;;;29.28;36.96;97220.45;110494;1240;69750;-64
2023/06/30 10:01:31;;;;;;;3.80;2.90;;;;;;;29.14;37.09;97222.17;110422;1241;59738;-65
2023/06/30 10:04:00;;;;;;;3.40;2.90;;;;;;;28.49;37.55;97211.79;110496;1241;59738;-65
2023/06/30 10:06:31;;;;;;;3.40;2.70;;;;;;;28.27;38.56;97213.17;110505;1239;71333;-65
2023/06/30 10:09:03;;;;;;;3.80;2.50;;;;;;;28.48;39.22;97207.11;110527;1242;69091;-66
2023/06/30 10:11:33;;;;;;;3.40;2.50;;;;;;;28.72;38.31;97207.34;110463;1241;69318;-68
2023/06/30 10:14:03;;;;;;;3.10;2.50;;;;;;;28.85;37.63;97205.77;110368;1242;59753;-65
2023/06/30 10:16:33;;;;;;;3.60;2.80;;;;;;;28.58;38.14;97196.73;110464;1240;59673;-66
2023/06/30 10:19:05;;;;;;;4.30;3.00;;;;;;;28.49;38.54;97195.42;110444;1242;71143;-65
2023/06/30 10:21:34;;;;;;;3.40;3.00;;;;;;;28.41;39.10;97195.11;110390;1242;69646;-65
2023/06/30 10:24:05;;;;;;;4.60;3.10;;;;;;;27.95;39.62;97197.15;110406;1241;69876;-66
2023/06/30 10:26:36;;;;;;;2.80;2.50;;;;;;;27.74;38.95;97191.47;110449;1242;59735;-65
2023/06/30 10:29:06;;;;;;;3.20;2.60;;;;;;;27.57;40.51;97186.58;110467;1241;59741;-65
2023/06/30 10:31:35;;;;;;;3.80;2.70;;;;;;;28.13;40.23;97184.92;110478;1239;71976;-65
2023/06/30 10:34:05;;;;;;;2.60;2.40;;;;;;;28.41;40.28;97181.23;110531;1241;69517;-64
2023/06/30 10:36:35;;;;;;;3.00;2.40;;;;;;;28.57;39.36;97179.81;110491;1242;69824;-65
2023/06/30 10:39:05;;;;;;;3.50;2.90;;;;;;;28.79;38.68;97178.63;110535;1242;59758;-65
2023/06/30 10:41:48;;;;;;;5.10;2.90;;;;;;;28.28;39.05;97178.70;110512;1242;59664;-66
2023/06/30 10:44:21;;;;;;;3.40;3.10;;;;;;;27.94;39.68;97178.33;110528;1239;71332;-64
2023/06/30 10:46:56;;;;;;;3.80;3.40;;;;;;;28.03;38.72;97174.38;110475;1242;69772;-66
2023/06/30 10:49:34;;;;;;;3.80;3.30;;;;;;;27.48;38.87;97171.16;110519;1242;69865;-67
2023/06/30 10:52:25;;;;;;;3.70;3.00;;;;;;;27.17;39.11;97169.18;110453;1241;59734;-66
2023/06/30 10:54:55;;;;;;;3.70;3.20;;;;;;;27.32;39.04;97166.10;110411;1241;59696;-66
2023/06/30 10:57:25;;;;;;;4.80;3.90;;;;;;;27.08;39.14;97164.57;110327;1241;70647;-66
2023/06/30 11:00:13;;;;;;;4.70;3.10;;;;;;;26.83;39.43;97162.48;110332;1241;69209;-64
2023/06/30 11:02:58;;;;;;;3.70;3.20;;;;;;;26.63;40.64;97161.69;110421;1240;69264;-65
2023/06/30 11:05:29;;;;;;;3.60;3.20;;;;;;;26.77;41.95;97156.23;110432;1242;59679;-65
2023/06/30 11:08:02;;;;;;;3.80;3.50;;;;;;;27.00;39.94;97155.81;110370;1242;59737;-65
2023/06/30 11:10:32;;;;;;;3.90;2.90;;;;;;;27.07;39.74;97150.89;110036;1242;499023;-65
2023/06/30 11:13:09;;;;;;;2.80;2.30;;;;;;;27.39;40.32;97146.81;110444;1242;68357;-66
2023/06/30 11:15:43;;;;;;;2.60;2.20;;;;;;;27.95;39.81;97139.67;110302;1240;69893;-64
2023/06/30 11:18:21;;;;;;;2.50;2.30;;;;;;;28.46;39.31;97139.91;110286;1242;59679;-66
2023/06/30 11:21:04;;;;;;;4.30;2.60;;;;;;;28.79;37.07;97133.16;110211;1241;59731;-65
2023/06/30 11:23:37;;;;;;;3.20;2.90;;;;;;;28.53;36.37;97130.09;110204;1242;71128;-65
2023/06/30 11:26:14;;;;;;;3.60;2.60;;;;;;;28.48;37.60;97127.64;110175;1244;68539;-67
2023/06/30 11:28:51;;;;;;;4.40;3.00;;;;;;;28.34;35.96;97126.67;110225;1242;68751;-65
2023/06/30 11:31:21;;;;;;;2.90;2.50;;;;;;;28.17;37.07;97122.98;110128;1244;59672;-65
2023/06/30 11:33:51;;;;;;;4.00;2.90;;;;;;;27.83;38.75;97120.28;110182;1241;59768;-66
2023/06/30 11:36:20;;;;;;;2.70;2.50;;;;;;;27.46;39.06;97125.22;110137;1245;71623;-65
2023/06/30 11:38:50;;;;;;;3.30;2.80;;;;;;;27.92;38.31;97118.98;110160;1244;69795;-66
2023/06/30 11:41:20;;;;;;;2.80;2.50;;;;;;;27.98;36.63;97119.98;110176;1243;69943;-65
2023/06/30 11:43:50;;;;;;;3.80;3.00;;;;;;;28.08;36.34;97116.15;110177;1241;59691;-66